Startpagina
METAR-TAF:

METAR-TAF

Vliegvelden :

Talara, Peru

breedte: 04-34S, lengte: 081-15W, hoogte: 85 m

Actueel weer

Dit bericht is 26 minuten geleden gemaakt, om 13:00 UTC
Wind 14 kt uit het zuidzuidoosten
Temperatuur 22°C
Vochtigheid 73%
Druk 1011 hPa
Zicht 10 km of meer
geen wolken onder 1500 m en geen cumulonimbus

METAR: SPYL 201300Z 15014KT CAVOK 22/17 Q1011 RMK BIRD HAZARD RWY 17/35 PP000

Tijdstip: 08:26 (13:26 UTC)

Verwachting

Dit bericht is 2 uur en het 16 minuten geleden gemaakt, om 11:10 UTC
Verwachting geldig van 20 om 12 UTC tot 21 om 12 UTC
Wind 20 kt uit het zuidzuidoosten
Zicht 10 km of meer
geen wolken onder 1500 m en geen cumulonimbus
Van 20 om 1900 UTC
Wind 10 kt uit het zuidzuidwesten
Zicht 10 km of meer
geen wolken onder 1500 m en geen cumulonimbus

TAF: SPYL 201110Z 2012/2112 15020KT CAVOK TX26/2019Z TN20/2111Z FM201900 21010KT CAVOK

Waarnemingen en weersverwachtingen van meer dan 4000 vliegvelden (METAR en TAF).

De beschikbare stations zijn de gele en rode punten op de kaart.

Ga met uw muis naar het station om de naam te zien.

Klik dan om waarnemingen en weersverwachtingen te zien.

kaart wijzigen: klik op de groene knoppen met een zwart kruis om in te zoomen, op de groene knop met een streepje om uit te zoomen of op de groene pijlen voor aangrenzende kaarten.


METAR-TAF: